createdAt,value
2023-01-01T00:00:27.064Z,100056.75
2023-01-01T00:02:53.541Z,100037.00
2023-01-01T00:05:19.998Z,100053.22
2023-01-01T00:07:46.915Z,100050.00
2023-01-01T00:10:28.506Z,100051.28
2023-01-01T00:12:58.539Z,100051.72
2023-01-01T00:15:26.370Z,100051.13
2023-01-01T00:17:53.364Z,100040.66
2023-01-01T00:20:20.227Z,100052.09
2023-01-01T00:22:55.348Z,100059.06
2023-01-01T00:25:22.178Z,100051.53
2023-01-01T00:27:48.921Z,100052.38
2023-01-01T00:30:15.801Z,100061.84
2023-01-01T00:32:42.242Z,100054.13
2023-01-01T00:35:09.333Z,100065.25
2023-01-01T00:37:37.065Z,100063.06
2023-01-01T00:40:06.417Z,100067.50
2023-01-01T00:42:32.875Z,100069.06
2023-01-01T00:44:59.656Z,100075.75
2023-01-01T00:47:26.162Z,100066.69
2023-01-01T00:49:52.636Z,100081.31
2023-01-01T00:52:19.078Z,100080.22
2023-01-01T00:54:45.587Z,100075.00
2023-01-01T00:57:12.017Z,100070.16
2023-01-01T00:59:38.677Z,100079.69
2023-01-01T01:02:05.385Z,100083.00
2023-01-01T01:04:32.040Z,100089.59
2023-01-01T01:06:58.544Z,100093.91
2023-01-01T01:09:25.047Z,100093.19
2023-01-01T01:11:51.531Z,100096.69
2023-01-01T01:14:37.975Z,100092.13
2023-01-01T01:17:04.494Z,100089.94
2023-01-01T01:19:31.069Z,100088.66
2023-01-01T01:21:57.599Z,100107.22
2023-01-01T01:24:24.080Z,100111.38
2023-01-01T01:26:50.571Z,100104.47
2023-01-01T01:29:17.341Z,100094.63
2023-01-01T01:31:43.961Z,100108.81
2023-01-01T01:34:15.905Z,100098.72
2023-01-01T01:36:42.742Z,100109.44
2023-01-01T01:39:12.099Z,100102.06
2023-01-01T01:41:38.710Z,100098.47
2023-01-01T01:44:46.719Z,100106.88
2023-01-01T01:47:29.639Z,100107.00
2023-01-01T01:50:01.512Z,100117.97
2023-01-01T01:52:28.571Z,100115.13
2023-01-01T01:54:55.737Z,100118.53
2023-01-01T01:57:22.821Z,100119.88
2023-01-01T01:59:51.085Z,100109.38
2023-01-01T02:02:38.953Z,100105.94
2023-01-01T02:05:06.644Z,100121.69
2023-01-01T02:07:34.265Z,100112.63
2023-01-01T02:10:03.213Z,100111.47
2023-01-01T02:12:30.012Z,100108.53
2023-01-01T02:14:56.529Z,100118.09
2023-01-01T02:17:39.333Z,100128.44
2023-01-01T02:20:28.637Z,100158.97
2023-01-01T02:23:14.760Z,100127.09
2023-01-01T02:26:19.006Z,100123.19
2023-01-01T02:28:58.709Z,100134.81
2023-01-01T02:31:28.902Z,100156.06
2023-01-01T02:34:00.158Z,100158.03
2023-01-01T02:36:27.302Z,100144.19
2023-01-01T02:38:55.728Z,100175.19
2023-01-01T02:41:27.187Z,100176.81
2023-01-01T02:43:53.808Z,100141.91
2023-01-01T02:48:47.862Z,100149.75
2023-01-01T02:51:14.392Z,100135.41
2023-01-01T02:53:56.125Z,100155.97
2023-01-01T02:56:42.841Z,100161.03
2023-01-01T02:59:41.620Z,100148.22
2023-01-01T03:02:13.494Z,100149.19
2023-01-01T03:05:01.303Z,100154.41
2023-01-01T03:07:49.493Z,100165.59
2023-01-01T03:10:20.861Z,100147.41
2023-01-01T03:12:53.482Z,100166.19
2023-01-01T03:15:41.146Z,100142.44
2023-01-01T03:18:35.401Z,100147.06
2023-01-01T03:21:04.764Z,100155.81
2023-01-01T03:23:43.233Z,100142.97
2023-01-01T03:26:14.067Z,100146.28
2023-01-01T03:28:46.743Z,100151.47
2023-01-01T03:31:19.065Z,100161.75
2023-01-01T03:33:48.547Z,100155.81
2023-01-01T03:36:20.084Z,100158.16
2023-01-01T03:38:52.924Z,100161.19
2023-01-01T03:41:36.407Z,100167.28
2023-01-01T03:44:14.825Z,100176.91
2023-01-01T03:46:42.532Z,100159.28
2023-01-01T03:49:10.649Z,100182.91
2023-01-01T03:52:09.633Z,100184.34
2023-01-01T03:54:46.285Z,100202.25
2023-01-01T03:57:27.731Z,100200.53
2023-01-01T04:00:08.105Z,100195.53
2023-01-01T04:02:38.792Z,100201.28
2023-01-01T04:05:07.658Z,100221.75
2023-01-01T04:07:35.576Z,100220.25
2023-01-01T04:10:02.539Z,100226.13
2023-01-01T04:12:30.126Z,100230.53
2023-01-01T04:14:56.574Z,100222.66
2023-01-01T04:17:23.108Z,100233.25
2023-01-01T04:19:54.833Z,100229.00
2023-01-01T04:22:23.449Z,100231.31
2023-01-01T04:24:50.331Z,100215.13
2023-01-01T04:27:16.824Z,100227.16
2023-01-01T04:29:43.267Z,100219.22
2023-01-01T04:32:09.769Z,100221.88
2023-01-01T04:34:36.199Z,100225.53
2023-01-01T04:37:04.848Z,100239.81
2023-01-01T04:39:34.733Z,100246.94
2023-01-01T04:42:01.301Z,100220.94
2023-01-01T04:44:27.756Z,100241.44
2023-01-01T04:46:58.400Z,100241.78
2023-01-01T04:49:26.748Z,100243.38
2023-01-01T04:51:53.192Z,100249.84
2023-01-01T04:54:19.675Z,100241.03
2023-01-01T04:56:46.123Z,100227.38
2023-01-01T04:59:12.602Z,100244.59
2023-01-01T05:01:39.146Z,100242.78
2023-01-01T05:04:05.708Z,100244.50
2023-01-01T05:06:32.172Z,100251.41
2023-01-01T05:08:59.623Z,100240.00
2023-01-01T05:11:28.339Z,100241.75
2023-01-01T05:13:56.430Z,100242.25
2023-01-01T05:16:25.199Z,100254.16
2023-01-01T05:18:52.035Z,100263.56
2023-01-01T05:21:23.671Z,100246.44
2023-01-01T05:23:54.640Z,100253.00
2023-01-01T05:26:23.527Z,100251.66
2023-01-01T05:28:50.847Z,100261.84
2023-01-01T05:31:20.281Z,100270.22
2023-01-01T05:33:47.239Z,100273.31
2023-01-01T05:36:22.368Z,100278.13
2023-01-01T05:38:49.131Z,100266.94
2023-01-01T05:41:16.503Z,100266.13
2023-01-01T05:43:43.499Z,100292.81
2023-01-01T05:46:16.385Z,100281.03
2023-01-01T05:48:43.653Z,100293.19
2023-01-01T05:51:12.182Z,100287.16
2023-01-01T05:53:39.087Z,100283.44
2023-01-01T05:56:06.685Z,100301.50
2023-01-01T05:58:34.652Z,100294.47
2023-01-01T06:01:09.515Z,100293.06
2023-01-01T06:03:36.458Z,100301.72
2023-01-01T06:06:07.929Z,100300.50
2023-01-01T06:08:34.653Z,100319.38
2023-01-01T06:11:06.008Z,100323.41
2023-01-01T06:13:32.952Z,100346.13
2023-01-01T06:16:00.725Z,100319.81
2023-01-01T06:18:30.549Z,100336.06
2023-01-01T06:21:22.758Z,100347.84
2023-01-01T06:23:49.546Z,100335.91
2023-01-01T06:26:18.678Z,100325.34
2023-01-01T06:28:45.656Z,100360.31
2023-01-01T06:31:14.287Z,100355.88
2023-01-01T06:33:41.965Z,100358.56
2023-01-01T06:36:10.846Z,100352.22
2023-01-01T06:38:40.184Z,100355.75
2023-01-01T06:41:18.311Z,100362.97
2023-01-01T06:43:45.616Z,100379.56
2023-01-01T06:46:24.060Z,100375.31
2023-01-01T06:48:53.907Z,100347.19
2023-01-01T06:51:25.400Z,100360.22
2023-01-01T06:53:52.363Z,100366.94
2023-01-01T06:56:19.558Z,100374.88
2023-01-01T06:58:46.449Z,100384.88
2023-01-01T07:01:24.370Z,100367.09
2023-01-01T07:03:56.063Z,100376.84
2023-01-01T07:06:23.611Z,100379.25
2023-01-01T07:08:50.493Z,100368.00
2023-01-01T07:11:17.455Z,100372.50
2023-01-01T07:13:44.356Z,100374.38
2023-01-01T07:16:13.505Z,100383.91
2023-01-01T07:18:40.898Z,100370.00
2023-01-01T07:21:29.591Z,100387.25
2023-01-01T07:23:58.051Z,100392.38
2023-01-01T07:26:29.096Z,100395.00
2023-01-01T07:28:59.495Z,100381.22
2023-01-01T07:31:30.925Z,100385.47
2023-01-01T07:33:57.393Z,100403.88
2023-01-01T07:36:23.814Z,100406.22
2023-01-01T07:38:50.253Z,100415.25
2023-01-01T07:41:16.689Z,100422.94
2023-01-01T07:43:43.173Z,100435.22
2023-01-01T07:46:13.191Z,100441.50
2023-01-01T07:48:40.329Z,100443.91
2023-01-01T07:51:06.975Z,100444.06
2023-01-01T07:53:33.498Z,100455.06
2023-01-01T07:56:00.161Z,100447.41
2023-01-01T07:58:26.664Z,100453.41
2023-01-01T08:00:53.134Z,100450.84
2023-01-01T08:03:19.700Z,100470.00
2023-01-01T08:05:46.215Z,100458.78
2023-01-01T08:08:12.678Z,100463.13
2023-01-01T08:10:39.198Z,100456.81
2023-01-01T08:13:07.274Z,100460.50
2023-01-01T08:15:34.275Z,100473.69
2023-01-01T08:18:02.507Z,100477.94
2023-01-01T08:20:30.710Z,100476.94
2023-01-01T08:23:01.436Z,100495.22
2023-01-01T08:25:31.236Z,100487.56
2023-01-01T08:27:57.654Z,100503.94
2023-01-01T08:30:24.398Z,100492.81
2023-01-01T08:32:50.884Z,100498.66
2023-01-01T08:35:17.337Z,100502.28
2023-01-01T08:37:43.774Z,100504.66
2023-01-01T08:40:12.394Z,100504.78
2023-01-01T08:42:39.431Z,100520.69
2023-01-01T08:45:06.640Z,100538.13
2023-01-01T08:47:33.202Z,100536.47
2023-01-01T08:49:59.690Z,100552.72
2023-01-01T08:52:26.168Z,100547.44
2023-01-01T08:54:52.724Z,100555.34
2023-01-01T08:57:19.215Z,100572.91
2023-01-01T08:59:45.743Z,100579.22
2023-01-01T09:02:12.712Z,100577.50
2023-01-01T09:04:39.464Z,100571.56
2023-01-01T09:07:05.909Z,100589.59
2023-01-01T09:09:32.397Z,100596.75
2023-01-01T09:12:04.052Z,100583.56
2023-01-01T09:14:31.092Z,100593.28
2023-01-01T09:16:57.539Z,100612.59
2023-01-01T09:19:24.063Z,100620.47
2023-01-01T09:21:50.914Z,100633.50
2023-01-01T09:24:17.357Z,100643.13
2023-01-01T09:26:45.631Z,100651.81
2023-01-01T09:29:12.093Z,100646.53
2023-01-01T09:31:38.633Z,100656.00
2023-01-01T09:34:05.125Z,100660.41
2023-01-01T09:36:32.554Z,100671.72
2023-01-01T09:38:59.736Z,100695.31
2023-01-01T09:41:44.933Z,100695.50
2023-01-01T09:44:36.171Z,100705.75
2023-01-01T09:47:04.344Z,100721.69
2023-01-01T09:49:44.823Z,100716.44
2023-01-01T09:52:13.423Z,100717.25
2023-01-01T09:55:01.440Z,100711.19
2023-01-01T09:57:31.953Z,100739.13
2023-01-01T09:59:59.636Z,100713.81
2023-01-01T10:02:51.363Z,100722.41
2023-01-01T10:05:38.164Z,100736.50
2023-01-01T10:08:10.687Z,100733.91
2023-01-01T10:10:42.036Z,100756.59
2023-01-01T10:13:43.719Z,100756.59
2023-01-01T10:16:32.075Z,100763.56
2023-01-01T10:19:06.189Z,100764.47
2023-01-01T10:21:34.311Z,100765.31
2023-01-01T10:24:05.708Z,100774.03
2023-01-01T10:26:33.143Z,100771.41
2023-01-01T10:29:13.948Z,100763.53
2023-01-01T10:31:46.234Z,100771.28
2023-01-01T10:34:15.726Z,100758.31
2023-01-01T10:36:43.783Z,100764.31
2023-01-01T10:39:14.856Z,100774.94
2023-01-01T10:41:41.336Z,100776.69
2023-01-01T10:44:08.216Z,100766.22
2023-01-01T10:46:35.400Z,100764.44
2023-01-01T10:49:12.067Z,100781.91
2023-01-01T10:51:59.449Z,100767.94
2023-01-01T10:54:38.957Z,100764.47
2023-01-01T10:57:22.331Z,100781.91
2023-01-01T10:59:54.134Z,100781.03
2023-01-01T11:02:24.869Z,100784.53
2023-01-01T11:04:53.136Z,100774.91
2023-01-01T11:07:30.720Z,100773.16
2023-01-01T11:10:04.158Z,100776.69
2023-01-01T11:15:36.050Z,100787.16
2023-01-01T11:18:04.688Z,100801.16
2023-01-01T11:20:31.448Z,100776.69
2023-01-01T11:22:57.976Z,100794.13
2023-01-01T11:25:29.676Z,100811.63
2023-01-01T11:28:21.935Z,100796.75
2023-01-01T11:31:00.071Z,100787.16
2023-01-01T11:33:27.639Z,100805.50
2023-01-01T11:35:55.300Z,100807.22
2023-01-01T11:38:29.240Z,100808.97
2023-01-01T11:41:02.779Z,100816.88
2023-01-01T11:43:35.311Z,100822.97
2023-01-01T11:46:07.243Z,100828.16
2023-01-01T11:48:35.028Z,100826.44
2023-01-01T11:51:06.855Z,100822.94
2023-01-01T11:53:41.688Z,100833.41
2023-01-01T11:56:28.427Z,100828.22
2023-01-01T11:59:00.398Z,100811.59
2023-01-01T12:01:36.031Z,100799.38
2023-01-01T12:04:08.069Z,100807.22
2023-01-01T12:06:48.283Z,100824.69
2023-01-01T12:09:19.567Z,100817.69
2023-01-01T12:11:57.620Z,100831.53
2023-01-01T12:14:55.285Z,100836.94
2023-01-01T12:17:26.724Z,100830.81
2023-01-01T12:19:58.617Z,100850.03
2023-01-01T12:22:25.355Z,100839.53
2023-01-01T12:24:52.479Z,100840.41
2023-01-01T12:27:40.690Z,100857.94
2023-01-01T12:30:22.724Z,100862.28
2023-01-01T12:33:08.580Z,100856.97
2023-01-01T12:36:05.711Z,100856.91
2023-01-01T12:38:40.952Z,100881.47
2023-01-01T12:41:31.575Z,100877.09
2023-01-01T12:44:14.483Z,100882.31
2023-01-01T12:46:51.149Z,100896.25
2023-01-01T12:49:29.856Z,100891.94
2023-01-01T12:52:05.574Z,100890.97
2023-01-01T12:54:56.897Z,100905.78
2023-01-01T12:57:36.595Z,100895.41
2023-01-01T13:00:05.208Z,100898.94
2023-01-01T13:02:35.002Z,100918.94
2023-01-01T13:05:06.171Z,100907.63
2023-01-01T13:07:39.206Z,100901.59
2023-01-01T13:10:20.812Z,100906.78
2023-01-01T13:12:48.084Z,100924.34
2023-01-01T13:15:40.372Z,100933.09
2023-01-01T13:18:15.788Z,100931.16
2023-01-01T13:20:44.880Z,100926.03
2023-01-01T13:23:36.337Z,100925.97
2023-01-01T13:26:18.677Z,100932.09
2023-01-01T13:28:57.156Z,100931.22
2023-01-01T13:31:49.951Z,100934.69
2023-01-01T13:34:35.950Z,100934.78
2023-01-01T13:37:11.522Z,100924.28
2023-01-01T13:39:58.271Z,100934.75
2023-01-01T13:42:44.972Z,100936.50
2023-01-01T13:46:10.054Z,100950.53
2023-01-01T13:48:17.049Z,100942.63
2023-01-01T13:51:23.332Z,100966.94
2023-01-01T13:54:26.566Z,100961.50
2023-01-01T13:56:57.806Z,100971.38
2023-01-01T13:59:42.596Z,100980.13
2023-01-01T14:02:26.411Z,100980.91
2023-01-01T14:05:05.068Z,100978.25
2023-01-01T14:07:53.222Z,100982.75
2023-01-01T14:10:21.861Z,100975.69
2023-01-01T14:12:49.415Z,100977.41
2023-01-01T14:15:23.687Z,100977.41
2023-01-01T14:17:51.057Z,100983.28
2023-01-01T14:20:19.303Z,100987.69
2023-01-01T14:22:46.760Z,100999.03
2023-01-01T14:25:27.372Z,101013.09
2023-01-01T14:27:58.064Z,100994.03
2023-01-01T14:30:25.234Z,101006.25
2023-01-01T14:33:02.563Z,101011.38
2023-01-01T14:35:29.671Z,101008.72
2023-01-01T14:37:56.527Z,101026.09
2023-01-01T14:40:28.750Z,101029.69
2023-01-01T14:42:58.705Z,101030.41
2023-01-01T14:45:25.772Z,101034.03
2023-01-01T14:47:54.817Z,101034.09
2023-01-01T14:50:42.713Z,101040.09
2023-01-01T14:53:14.122Z,101037.56
2023-01-01T14:55:43.124Z,101040.97
2023-01-01T14:58:19.770Z,101042.28
2023-01-01T15:00:46.614Z,101045.19
2023-01-01T15:03:16.747Z,101052.06
2023-01-01T15:05:45.535Z,101065.31
2023-01-01T15:08:24.100Z,101063.22
2023-01-01T15:10:51.005Z,101059.53
2023-01-01T15:13:20.353Z,101079.28
2023-01-01T15:15:49.213Z,101083.56
2023-01-01T15:18:38.627Z,101082.63
2023-01-01T15:21:31.391Z,101098.88
2023-01-01T15:24:01.492Z,101100.19
2023-01-01T15:26:41.527Z,101098.28
2023-01-01T15:29:10.622Z,101089.53
2023-01-01T15:31:45.891Z,101110.63
2023-01-01T15:34:22.015Z,101106.50
2023-01-01T15:36:48.852Z,101107.94
2023-01-01T15:39:15.347Z,101102.16
2023-01-01T15:41:50.630Z,101107.69
2023-01-01T15:44:28.986Z,101105.91
2023-01-01T15:47:06.539Z,101101.88
2023-01-01T15:49:33.424Z,101091.97
2023-01-01T15:52:04.148Z,101084.28
2023-01-01T15:54:32.299Z,101093.09
2023-01-01T15:56:58.818Z,101096.06
2023-01-01T15:59:28.262Z,101108.84
2023-01-01T16:02:28.043Z,101103.59
2023-01-01T16:04:54.687Z,101110.50
2023-01-01T16:07:23.563Z,101105.44
2023-01-01T16:09:57.045Z,101100.09
2023-01-01T16:12:24.439Z,101115.91
2023-01-01T16:14:50.952Z,101114.00
2023-01-01T16:17:19.222Z,101106.94
2023-01-01T16:19:46.745Z,101110.59
2023-01-01T16:22:17.357Z,101118.44
2023-01-01T16:24:45.304Z,101125.41
2023-01-01T16:27:12.223Z,101121.91
2023-01-01T16:29:43.159Z,101128.97
2023-01-01T16:32:19.521Z,101129.53
2023-01-01T16:34:46.056Z,101130.34
2023-01-01T16:37:12.564Z,101128.88
2023-01-01T16:39:39.306Z,101129.56
2023-01-01T16:42:05.904Z,101122.38
2023-01-01T16:44:32.459Z,101115.50
2023-01-01T16:46:59.073Z,101126.94
2023-01-01T16:49:25.527Z,101107.66
2023-01-01T16:51:52.000Z,101113.75
2023-01-01T16:54:18.889Z,101111.22
2023-01-01T16:56:45.360Z,101105.94
2023-01-01T16:59:12.216Z,101111.19
2023-01-01T17:01:38.961Z,101113.56
2023-01-01T17:04:05.602Z,101115.13
2023-01-01T17:06:32.216Z,101120.34
2023-01-01T17:09:00.407Z,101140.41
2023-01-01T17:11:27.043Z,101133.53
2023-01-01T17:13:53.634Z,101130.00
2023-01-01T17:16:27.067Z,101134.44
2023-01-01T17:21:42.523Z,101117.06
2023-01-01T17:24:09.200Z,101115.41
2023-01-01T17:26:35.764Z,101114.81
2023-01-01T17:29:03.061Z,101116.13
2023-01-01T17:31:29.924Z,101104.66
2023-01-01T17:33:56.683Z,101111.91
2023-01-01T17:36:23.763Z,101113.94
2023-01-01T17:38:50.362Z,101117.06
2023-01-01T17:41:17.673Z,101120.53
2023-01-01T17:43:46.818Z,101118.41
2023-01-01T17:46:17.357Z,101133.53
2023-01-01T17:48:44.535Z,101129.09
2023-01-01T17:51:12.490Z,101126.63
2023-01-01T17:53:39.954Z,101136.81
2023-01-01T17:56:07.804Z,101137.34
2023-01-01T17:58:35.701Z,101138.66
2023-01-01T18:01:23.872Z,101135.41
2023-01-01T18:03:52.554Z,101146.78
2023-01-01T18:06:19.691Z,101158.66
2023-01-01T18:08:46.621Z,101144.06
2023-01-01T18:11:13.415Z,101146.19
2023-01-01T18:13:39.893Z,101150.81
2023-01-01T18:16:08.162Z,101152.44
2023-01-01T18:18:39.170Z,101155.34
2023-01-01T18:21:08.383Z,101148.91
2023-01-01T18:23:36.189Z,101162.31
2023-01-01T18:26:04.219Z,101154.34
2023-01-01T18:28:31.034Z,101159.13
2023-01-01T18:31:07.700Z,101160.69
2023-01-01T18:33:35.088Z,101162.47
2023-01-01T18:36:10.471Z,101166.81
2023-01-01T18:38:37.084Z,101170.94
2023-01-01T18:41:09.774Z,101163.31
2023-01-01T18:43:36.331Z,101154.47
2023-01-01T18:46:03.060Z,101154.53
2023-01-01T18:48:29.621Z,101160.63
2023-01-01T18:50:56.891Z,101154.34
2023-01-01T18:53:24.365Z,101156.44
2023-01-01T18:55:59.385Z,101160.69
2023-01-01T18:58:25.842Z,101146.69
2023-01-01T19:00:53.762Z,101145.78
2023-01-01T19:03:37.516Z,101145.97
2023-01-01T19:06:20.297Z,101140.84
2023-01-01T19:08:46.874Z,101140.03
2023-01-01T19:11:17.269Z,101134.78
2023-01-01T19:13:44.665Z,101144.25
2023-01-01T19:16:11.496Z,101142.34
2023-01-01T19:18:40.793Z,101143.38
2023-01-01T19:21:13.391Z,101129.84
2023-01-01T19:23:50.954Z,101139.75
2023-01-01T19:26:33.215Z,101125.88
2023-01-01T19:29:16.974Z,101133.25
2023-01-01T19:31:45.207Z,101134.72
2023-01-01T19:34:11.776Z,101132.56
2023-01-01T19:36:38.749Z,101135.47
2023-01-01T19:39:06.261Z,101123.94
2023-01-01T19:41:32.978Z,101125.78
2023-01-01T19:43:59.913Z,101126.31
2023-01-01T19:46:26.571Z,101124.78
2023-01-01T19:48:53.350Z,101124.09
2023-01-01T19:51:22.506Z,101118.91
2023-01-01T19:53:50.144Z,101123.19
2023-01-01T19:56:18.000Z,101130.75
2023-01-01T19:58:45.558Z,101121.16
2023-01-01T20:01:12.796Z,101134.41
2023-01-01T20:03:56.920Z,101137.84
2023-01-01T20:06:24.859Z,101141.47
2023-01-01T20:08:51.932Z,101147.50
2023-01-01T20:11:19.033Z,101142.09
2023-01-01T20:13:46.393Z,101139.66
2023-01-01T20:16:13.852Z,101143.91
2023-01-01T20:18:40.426Z,101136.13
2023-01-01T20:21:27.096Z,101134.72
2023-01-01T20:23:56.043Z,101136.38
2023-01-01T20:26:26.497Z,101135.38
2023-01-01T20:29:12.931Z,101127.59
2023-01-01T20:31:40.996Z,101124.09
2023-01-01T20:34:08.124Z,101122.44
2023-01-01T20:36:54.226Z,101116.50
2023-01-01T20:39:22.825Z,101106.75
2023-01-01T20:41:50.215Z,101105.97
2023-01-01T20:44:19.995Z,101111.41
2023-01-01T20:46:48.186Z,101116.66
2023-01-01T20:49:17.114Z,101115.69
2023-01-01T20:51:45.133Z,101118.66
2023-01-01T20:54:12.432Z,101114.84
2023-01-01T20:56:38.944Z,101122.72
2023-01-01T20:59:31.328Z,101133.28
2023-01-01T21:01:52.124Z,101131.50
2023-01-01T21:04:18.695Z,101128.78
2023-01-01T21:06:45.243Z,101127.97
2023-01-01T21:09:11.756Z,101132.88
2023-01-01T21:11:38.298Z,101142.53
2023-01-01T21:14:05.085Z,101148.56
2023-01-01T21:16:33.159Z,101150.06
2023-01-01T21:19:01.437Z,101152.19
2023-01-01T21:21:57.400Z,101160.72
2023-01-01T21:24:29.571Z,101163.31
2023-01-01T21:27:01.579Z,101156.69
2023-01-01T21:29:31.895Z,101155.09
2023-01-01T21:32:20.369Z,101166.00
2023-01-01T21:34:49.027Z,101170.53
2023-01-01T21:37:50.718Z,101166.88
2023-01-01T21:40:39.793Z,101159.59
2023-01-01T21:43:09.774Z,101150.69
2023-01-01T21:45:42.630Z,101150.16
2023-01-01T21:48:31.313Z,101152.78
2023-01-01T21:50:58.898Z,101142.59
2023-01-01T21:53:38.387Z,101130.63
2023-01-01T21:56:28.505Z,101115.97
2023-01-01T21:59:15.065Z,101116.13
2023-01-01T22:01:45.288Z,101113.44
2023-01-01T22:04:14.958Z,101108.31
2023-01-01T22:06:43.725Z,101114.03
2023-01-01T22:09:17.788Z,101118.50
2023-01-01T22:11:48.186Z,101113.78
2023-01-01T22:14:18.066Z,101129.75
2023-01-01T22:16:45.660Z,101122.41
2023-01-01T22:19:20.976Z,101126.19
2023-01-01T22:21:48.411Z,101139.53
2023-01-01T22:24:33.082Z,101133.41
2023-01-01T22:27:14.747Z,101132.91
2023-01-01T22:29:42.637Z,101129.28
2023-01-01T22:32:15.738Z,101127.38
2023-01-01T22:34:42.202Z,101124.97
2023-01-01T22:37:20.576Z,101122.13
2023-01-01T22:39:48.534Z,101128.19
2023-01-01T22:42:18.348Z,101123.00
2023-01-01T22:44:49.779Z,101122.22
2023-01-01T22:47:17.275Z,101123.72
2023-01-01T22:49:51.335Z,101117.75
2023-01-01T22:52:17.851Z,101124.19
2023-01-01T22:54:44.307Z,101118.03
2023-01-01T22:57:10.868Z,101126.81
2023-01-01T22:59:37.326Z,101117.50
2023-01-01T23:02:03.845Z,101101.00
2023-01-01T23:04:30.335Z,101098.50
2023-01-01T23:06:56.827Z,101093.25
2023-01-01T23:09:24.370Z,101101.78
2023-01-01T23:11:53.309Z,101103.41
2023-01-01T23:14:39.350Z,101093.94
2023-01-01T23:17:06.043Z,101090.63
2023-01-01T23:19:32.567Z,101082.88
2023-01-01T23:21:59.730Z,101066.19
2023-01-01T23:24:28.833Z,101057.47
2023-01-01T23:26:55.589Z,101057.22
2023-01-01T23:29:23.187Z,101060.00
2023-01-01T23:31:49.739Z,101054.91
2023-01-01T23:34:16.279Z,101051.38
2023-01-01T23:36:43.527Z,101043.53
2023-01-01T23:39:10.089Z,101043.56
2023-01-01T23:41:36.641Z,101028.50
2023-01-01T23:44:03.079Z,101017.25
2023-01-01T23:46:32.792Z,101014.75
2023-01-01T23:48:59.322Z,101019.03
2023-01-01T23:51:25.848Z,101019.13
2023-01-01T23:53:52.312Z,101023.38
2023-01-01T23:56:18.765Z,101017.25
2023-01-01T23:58:45.222Z,101002.28
